Sat, 25 Jun 2022 16:09:39 CEST | login

Information for RPM xxhash-libs-0.6.5-1.el7.x86_64.rpm

ID6819
Namexxhash-libs
Version0.6.5
Release1.el7
Epoch
Archx86_64
SummaryExtremely fast hash algorithm - library
DescriptionxxHash is an Extremely fast Hash algorithm, running at RAM speed limits. It successfully completes the SMHasher test suite which evaluates collision, dispersion and randomness qualities of hash functions. Code is highly portable, and hashes are identical on all platforms (little / big endian).
Build Time2018-04-19 14:56:41 GMT
Size14,406
a5fb69c054a201404d97e3ed15917058
LicenseBSD
Provides
libxxhash.so.0()(64bit)
xxhash-libs = 0.6.5-1.el7
xxhash-libs(x86-64) = 0.6.5-1.el7
Obsoletes No Obsoletes
Conflicts No Conflicts
Requires
/sbin/ldconfig
/sbin/ldconfig
libc.so.6()(64bit)
libc.so.6(GLIBC_2.14)(64bit)
libc.so.6(GLIBC_2.2.5)(64bit)
libc.so.6(GLIBC_2.4)(64bit)
rpmlib(CompressedFileNames) <= 3.0.4-1
rpmlib(FileDigests) <= 4.6.0-1
rpmlib(PayloadFilesHavePrefix) <= 4.0-1
rpmlib(PayloadIsXz) <= 5.2-1
rtld(GNU_HASH)
Recommends No Recommends
Suggests No Suggests
Supplements No Supplements
Enhances No Enhances
Files
1 through 6 of 6
Name ascending sort Size
/usr/lib64/libxxhash.so.018
/usr/lib64/libxxhash.so.0.6.515,416
/usr/share/doc/xxhash-libs-0.6.54,096
/usr/share/doc/xxhash-libs-0.6.5/README.md7,183
/usr/share/licenses/xxhash-libs-0.6.54,096
/usr/share/licenses/xxhash-libs-0.6.5/LICENSE1,314
Component of
Page:
1 through 50 of 67 >>>
Buildroot descending sort Created State
v8.2-ipv6-3650-3383 2022-05-17 15:46:55 expired
v8.2-ipv6-3648-3383 2022-05-17 15:41:06 expired
v8.2-ipv6-3642-3377 2022-05-17 10:35:07 expired
v8.2-ipv6-3640-3374 2022-05-17 09:47:30 expired
v8.2-ipv6-3638-3374 2022-05-17 09:41:42 expired
v8.2-ipv6-3636-3374 2022-05-17 09:35:24 expired
v8.2-ipv6-3587-3345 2022-05-12 11:53:10 expired
v8.2-ipv6-3585-3345 2022-05-12 11:46:59 expired
v8.2-testing-3508-3202 2022-03-01 10:33:25 expired
v8.2-testing-3506-3202 2022-03-01 10:20:07 expired
v8.2-staging-3484-3143 2022-02-11 17:16:10 expired
v8.2-staging-3480-3141 2022-02-11 09:11:45 expired
v8.2-testing-3478-3136 2022-02-11 09:08:14 expired
v8.2-staging-3455-3108 2022-01-25 17:07:28 expired
v8.2-staging-3404-3026 2022-01-12 12:32:06 expired
v8.2-staging-3391-3018 2022-01-11 17:55:35 expired
v8.2-staging-3381-3010 2022-01-11 17:32:46 expired
v8.2-testing-3333-2906 2021-12-08 13:50:02 expired
v8.2-testing-3331-2906 2021-12-08 13:39:29 expired
v8.2-testing-3314-2864 2021-11-16 17:32:13 expired
v8.2-testing-3312-2864 2021-11-16 16:46:47 expired
v8.2-staging-3247-2798 2021-09-16 11:57:04 expired
v8.2-staging-3243-2794 2021-09-13 16:12:04 expired
v8.2-staging-3241-2794 2021-09-13 15:50:13 expired
v8.2-staging-3239-2792 2021-09-13 14:37:39 expired
v8.2-staging-3225-2754 2021-09-02 15:12:42 expired
v8.2-staging-3223-2754 2021-09-02 15:05:54 expired
v8.2-staging-3221-2754 2021-09-02 13:01:44 expired
v8.2-testing-3188-2716 2021-08-09 16:09:09 expired
v8.2-evacnet-3103-2603 2021-06-08 10:18:32 expired
v8.2-staging-3084-2585 2021-05-20 12:35:05 expired
v8.2-staging-3082-2585 2021-05-20 12:24:17 expired
v8.2-staging-3073-2563 2021-05-18 15:50:48 expired
v8.2-evacnet-3044-2536 2021-05-10 12:48:21 expired
v8.2-evacnet-3042-2536 2021-05-10 12:18:13 expired
v8.2-ipv6-3017-2518 2021-05-05 10:34:30 expired
v8.2-ipv6-3003-2507 2021-05-05 09:45:49 expired
v8.2-ipv6-3001-2507 2021-05-05 09:40:32 expired
v8.2-testing-2969-2488 2021-04-28 10:32:45 expired
v8.2-testing-2857-2348 2021-02-03 14:58:55 expired
v8.2-ipv6-2844-2336 2021-02-01 15:08:57 expired
v8.2-ipv6-2838-2332 2021-02-01 14:43:48 expired
v8.2-ipv6-2831-2328 2021-01-29 16:51:49 expired
v8.2-testing-2733-2177 2020-11-05 18:58:43 expired
v8.2-base-2713-2162 2020-11-05 11:28:41 expired
v8.2-base-2545-1965 2020-08-17 14:53:42 expired
v8.2-base-2529-1926 2020-08-13 18:41:11 expired
v8.2-base-2525-1919 2020-08-12 15:51:24 expired
v8.1-testing-2483-1714 2020-07-08 17:24:00 expired
v8.1-testing-2481-1714 2020-07-08 17:11:49 expired